Airfield :
LOGIN :

Register | Disclaimer

   EN    FR    IT 

 










Legend :    VFR   Marginal VFR   IFR   Intensive IFR   Very Intensive IFR
Visi :
Ceiling :
>= 8 km
>= 3000ft
5 to 8 km
1000 to 3000 ft
1500m to 5 km
500 to 1000 ft
800 to 1500m
200 to 500 ft
< 800m
< 200 ft
Symbols :   Thunderstorms  Fog  Heavy snow  Heavy precipitations  Wind > 20 kt
SIGMETs :     Misc.  Thunderstorms  Icing  Turbulence  Mountain Waves  Volcanic Ashes







- Airport Elevation : 0 ft


ETEB - Ansbach Army Heliport

CURRENT METAR :
  • 212056Z AUTO 32008KT 9999 SCT140 14/03 A3014 RMK AO2 SLP205 T01420027 52029 $

EXPIRED METARs :
  • 211956Z AUTO 31008G15KT 9999 BKN140 16/03 A3011 RMK AO2 SLP192 T01620026 $
  • 211856Z AUTO 33011G21KT 9999 CLR 18/04 A3007 RMK AO2 SLP177 T01750037 $

TAF TAF ETEB
Valid from the 21 at 21:00 until the 23 at 03:00 UTC


212103Z 2121/2303 30009KT 9999 FEW030 QNH3006INS
BECMG 2206/2207 27012G18KT 9999 BKN020 QNH3008INS
BECMG 2211/2212 29015G25KT 9000 -SHRA BKN020 QNH3008INS
BECMG 2216/2217 29012KT 9999 NSW SCT030 BKN050 QNH3012INS
BECMG 2220/2221 28006KT 9999 SCT030 BKN040 QNH3015INS TX16/2214Z TN07/2204Z LAST NO AMDS AFT 2122 NEXT 2521
No reported NOTAMs for that airfield.



MET'MAP, your aeronautical weather chart ! - Copyright ORBIFLY December 2007 - Disclaimer

ORBIFLY MET'MAP TEAM :

Programming & Development : Alexandra Zaïnal
Concept & Development : Baudouin d'Aumeries
Co-Development & Prog : Marc-Olivier Méhu
Technical & hardware support : Manuel Goepfert

Contact : metmap@orbifly.com




SOURCES & CREDITS :

   NOAA